sensor_id;sensor_type;location;lat;lon;timestamp;P1;durP1;ratioP1;P2;durP2;ratioP2
795;SDS011;381;48.770;9.188;2023-03-14T00:01:52;6.33;;;6.00;;
795;SDS011;381;48.770;9.188;2023-03-14T00:06:54;10.70;;;10.20;;
795;SDS011;381;48.770;9.188;2023-03-14T00:11:58;10.90;;;10.50;;
795;SDS011;381;48.770;9.188;2023-03-14T00:17:00;11.10;;;10.60;;
795;SDS011;381;48.770;9.188;2023-03-14T00:22:02;11.13;;;10.73;;
795;SDS011;381;48.770;9.188;2023-03-14T00:27:05;11.17;;;10.77;;
795;SDS011;381;48.770;9.188;2023-03-14T00:32:07;10.27;;;9.87;;
795;SDS011;381;48.770;9.188;2023-03-14T00:37:09;10.57;;;10.17;;
795;SDS011;381;48.770;9.188;2023-03-14T00:42:14;10.30;;;9.90;;
795;SDS011;381;48.770;9.188;2023-03-14T00:47:16;10.60;;;10.20;;
795;SDS011;381;48.770;9.188;2023-03-14T00:52:18;9.70;;;9.30;;
795;SDS011;381;48.770;9.188;2023-03-14T00:57:21;10.40;;;9.80;;
795;SDS011;381;48.770;9.188;2023-03-14T01:02:23;9.00;;;8.70;;
795;SDS011;381;48.770;9.188;2023-03-14T01:07:25;8.93;;;8.63;;
795;SDS011;381;48.770;9.188;2023-03-14T01:12:29;11.10;;;10.33;;
795;SDS011;381;48.770;9.188;2023-03-14T01:17:31;8.33;;;8.03;;
795;SDS011;381;48.770;9.188;2023-03-14T01:22:33;8.83;;;8.53;;
795;SDS011;381;48.770;9.188;2023-03-14T01:27:36;11.43;;;10.63;;
795;SDS011;381;48.770;9.188;2023-03-14T01:32:39;10.53;;;9.83;;
795;SDS011;381;48.770;9.188;2023-03-14T01:37:41;9.47;;;8.93;;
795;SDS011;381;48.770;9.188;2023-03-14T01:42:55;10.03;;;9.50;;
795;SDS011;381;48.770;9.188;2023-03-14T01:47:59;8.10;;;7.80;;
795;SDS011;381;48.770;9.188;2023-03-14T01:53:03;7.90;;;7.60;;
795;SDS011;381;48.770;9.188;2023-03-14T01:58:06;7.40;;;7.00;;
795;SDS011;381;48.770;9.188;2023-03-14T02:03:10;6.90;;;6.70;;
795;SDS011;381;48.770;9.188;2023-03-14T02:08:16;6.47;;;6.23;;
795;SDS011;381;48.770;9.188;2023-03-14T02:13:29;7.47;;;7.07;;
795;SDS011;381;48.770;9.188;2023-03-14T02:19:00;6.57;;;6.37;;
795;SDS011;381;48.770;9.188;2023-03-14T02:24:08;6.83;;;6.63;;
795;SDS011;381;48.770;9.188;2023-03-14T02:29:23;6.70;;;6.50;;
795;SDS011;381;48.770;9.188;2023-03-14T02:34:26;6.00;;;5.80;;
795;SDS011;381;48.770;9.188;2023-03-14T02:39:29;5.80;;;5.60;;
795;SDS011;381;48.770;9.188;2023-03-14T02:44:48;6.30;;;6.00;;
795;SDS011;381;48.770;9.188;2023-03-14T02:49:52;5.90;;;5.60;;
795;SDS011;381;48.770;9.188;2023-03-14T02:55:00;6.03;;;5.80;;
795;SDS011;381;48.770;9.188;2023-03-14T03:00:06;5.60;;;5.30;;
795;SDS011;381;48.770;9.188;2023-03-14T03:05:11;4.83;;;4.73;;
795;SDS011;381;48.770;9.188;2023-03-14T03:10:13;4.80;;;4.60;;
795;SDS011;381;48.770;9.188;2023-03-14T03:15:17;5.03;;;4.80;;
795;SDS011;381;48.770;9.188;2023-03-14T03:20:19;4.70;;;4.40;;
795;SDS011;381;48.770;9.188;2023-03-14T03:25:21;3.73;;;3.63;;
795;SDS011;381;48.770;9.188;2023-03-14T03:30:25;3.40;;;3.10;;
795;SDS011;381;48.770;9.188;2023-03-14T03:35:27;11.97;;;5.80;;
795;SDS011;381;48.770;9.188;2023-03-14T03:40:31;3.57;;;3.30;;
795;SDS011;381;48.770;9.188;2023-03-14T03:45:34;4.27;;;3.40;;
795;SDS011;381;48.770;9.188;2023-03-14T03:50:37;2.40;;;2.30;;
795;SDS011;381;48.770;9.188;2023-03-14T03:55:44;2.80;;;2.30;;
795;SDS011;381;48.770;9.188;2023-03-14T04:00:50;3.80;;;1.97;;
795;SDS011;381;48.770;9.188;2023-03-14T04:06:02;2.10;;;1.83;;
795;SDS011;381;48.770;9.188;2023-03-14T04:11:07;2.07;;;1.87;;
795;SDS011;381;48.770;9.188;2023-03-14T04:16:29;2.47;;;2.23;;
795;SDS011;381;48.770;9.188;2023-03-14T04:21:38;3.07;;;2.10;;
795;SDS011;381;48.770;9.188;2023-03-14T04:26:45;2.37;;;2.10;;
795;SDS011;381;48.770;9.188;2023-03-14T04:31:53;2.17;;;1.90;;
795;SDS011;381;48.770;9.188;2023-03-14T04:36:55;1.90;;;1.80;;
795;SDS011;381;48.770;9.188;2023-03-14T04:42:04;2.20;;;1.90;;
795;SDS011;381;48.770;9.188;2023-03-14T04:47:09;2.30;;;2.03;;
795;SDS011;381;48.770;9.188;2023-03-14T04:52:13;4.33;;;2.40;;
795;SDS011;381;48.770;9.188;2023-03-14T04:57:15;2.77;;;1.93;;
795;SDS011;381;48.770;9.188;2023-03-14T05:02:20;3.90;;;2.50;;
795;SDS011;381;48.770;9.188;2023-03-14T05:07:51;2.63;;;2.00;;
795;SDS011;381;48.770;9.188;2023-03-14T05:13:32;2.83;;;1.70;;
795;SDS011;381;48.770;9.188;2023-03-14T05:18:46;1.97;;;1.60;;
795;SDS011;381;48.770;9.188;2023-03-14T05:24:06;3.47;;;2.50;;
795;SDS011;381;48.770;9.188;2023-03-14T05:29:27;3.03;;;1.87;;
795;SDS011;381;48.770;9.188;2023-03-14T05:34:40;3.23;;;2.30;;
795;SDS011;381;48.770;9.188;2023-03-14T05:40:00;2.50;;;1.43;;
795;SDS011;381;48.770;9.188;2023-03-14T05:45:27;2.77;;;2.10;;
795;SDS011;381;48.770;9.188;2023-03-14T05:51:06;3.20;;;1.93;;
795;SDS011;381;48.770;9.188;2023-03-14T05:56:34;1.80;;;1.70;;
795;SDS011;381;48.770;9.188;2023-03-14T06:01:42;1.97;;;1.87;;
795;SDS011;381;48.770;9.188;2023-03-14T06:06:51;4.00;;;2.23;;
795;SDS011;381;48.770;9.188;2023-03-14T06:11:55;3.10;;;2.13;;
795;SDS011;381;48.770;9.188;2023-03-14T06:16:57;2.37;;;1.93;;
795;SDS011;381;48.770;9.188;2023-03-14T06:22:04;7.53;;;2.13;;
795;SDS011;381;48.770;9.188;2023-03-14T06:27:09;4.53;;;2.83;;
795;SDS011;381;48.770;9.188;2023-03-14T06:32:11;2.13;;;1.80;;
795;SDS011;381;48.770;9.188;2023-03-14T06:37:15;4.53;;;2.17;;
795;SDS011;381;48.770;9.188;2023-03-14T06:42:20;2.80;;;2.33;;
795;SDS011;381;48.770;9.188;2023-03-14T06:47:22;1.93;;;1.80;;
795;SDS011;381;48.770;9.188;2023-03-14T06:52:28;4.03;;;3.00;;
795;SDS011;381;48.770;9.188;2023-03-14T06:57:30;2.50;;;2.20;;
795;SDS011;381;48.770;9.188;2023-03-14T07:02:32;3.20;;;2.10;;
795;SDS011;381;48.770;9.188;2023-03-14T07:07:37;1.67;;;1.57;;
795;SDS011;381;48.770;9.188;2023-03-14T07:12:39;2.97;;;1.63;;
795;SDS011;381;48.770;9.188;2023-03-14T07:17:41;4.73;;;1.97;;
795;SDS011;381;48.770;9.188;2023-03-14T07:22:45;2.83;;;1.70;;
795;SDS011;381;48.770;9.188;2023-03-14T07:27:49;1.83;;;1.73;;
795;SDS011;381;48.770;9.188;2023-03-14T07:32:52;2.20;;;1.60;;
795;SDS011;381;48.770;9.188;2023-03-14T07:37:58;4.47;;;2.00;;
795;SDS011;381;48.770;9.188;2023-03-14T07:43:09;2.10;;;1.57;;
795;SDS011;381;48.770;9.188;2023-03-14T07:48:19;3.90;;;1.87;;
795;SDS011;381;48.770;9.188;2023-03-14T07:53:23;2.47;;;1.97;;
795;SDS011;381;48.770;9.188;2023-03-14T07:58:26;2.17;;;1.97;;
795;SDS011;381;48.770;9.188;2023-03-14T08:03:28;1.90;;;1.67;;
795;SDS011;381;48.770;9.188;2023-03-14T08:08:31;1.90;;;1.50;;
795;SDS011;381;48.770;9.188;2023-03-14T08:13:34;1.70;;;1.60;;
795;SDS011;381;48.770;9.188;2023-03-14T08:18:36;1.87;;;1.77;;
795;SDS011;381;48.770;9.188;2023-03-14T08:23:40;2.97;;;2.20;;
795;SDS011;381;48.770;9.188;2023-03-14T08:28:42;1.90;;;1.67;;
795;SDS011;381;48.770;9.188;2023-03-14T08:33:44;4.33;;;2.03;;
795;SDS011;381;48.770;9.188;2023-03-14T08:38:48;1.80;;;1.70;;
795;SDS011;381;48.770;9.188;2023-03-14T08:43:50;2.03;;;1.83;;
795;SDS011;381;48.770;9.188;2023-03-14T08:48:52;1.50;;;1.40;;
795;SDS011;381;48.770;9.188;2023-03-14T08:53:55;1.40;;;1.40;;
795;SDS011;381;48.770;9.188;2023-03-14T08:58:57;2.70;;;1.80;;
795;SDS011;381;48.770;9.188;2023-03-14T09:03:59;1.83;;;1.30;;
795;SDS011;381;48.770;9.188;2023-03-14T09:09:04;1.70;;;0.97;;
795;SDS011;381;48.770;9.188;2023-03-14T09:14:07;1.20;;;1.10;;
795;SDS011;381;48.770;9.188;2023-03-14T09:19:09;1.30;;;1.20;;
795;SDS011;381;48.770;9.188;2023-03-14T09:24:12;1.50;;;1.40;;
795;SDS011;381;48.770;9.188;2023-03-14T09:29:14;1.57;;;1.47;;
795;SDS011;381;48.770;9.188;2023-03-14T09:34:16;3.53;;;1.40;;
795;SDS011;381;48.770;9.188;2023-03-14T09:39:20;1.57;;;1.20;;
795;SDS011;381;48.770;9.188;2023-03-14T09:44:24;1.40;;;1.30;;
795;SDS011;381;48.770;9.188;2023-03-14T09:49:30;1.40;;;1.30;;
795;SDS011;381;48.770;9.188;2023-03-14T09:54:36;1.20;;;1.10;;
795;SDS011;381;48.770;9.188;2023-03-14T09:59:41;1.20;;;1.10;;
795;SDS011;381;48.770;9.188;2023-03-14T10:04:46;1.40;;;1.40;;
795;SDS011;381;48.770;9.188;2023-03-14T10:09:51;0.87;;;0.80;;
795;SDS011;381;48.770;9.188;2023-03-14T10:14:53;1.10;;;1.00;;
795;SDS011;381;48.770;9.188;2023-03-14T10:19:56;2.23;;;1.50;;
795;SDS011;381;48.770;9.188;2023-03-14T10:25:01;1.60;;;1.50;;
795;SDS011;381;48.770;9.188;2023-03-14T10:30:06;1.53;;;1.20;;
795;SDS011;381;48.770;9.188;2023-03-14T10:35:27;1.20;;;1.10;;
795;SDS011;381;48.770;9.188;2023-03-14T10:40:37;0.60;;;0.50;;
795;SDS011;381;48.770;9.188;2023-03-14T10:45:41;0.93;;;0.93;;
795;SDS011;381;48.770;9.188;2023-03-14T10:50:49;1.30;;;1.20;;
795;SDS011;381;48.770;9.188;2023-03-14T10:55:58;2.27;;;0.90;;
795;SDS011;381;48.770;9.188;2023-03-14T11:01:08;1.10;;;1.10;;
795;SDS011;381;48.770;9.188;2023-03-14T11:06:20;2.37;;;1.60;;
795;SDS011;381;48.770;9.188;2023-03-14T11:11:29;1.00;;;1.00;;
795;SDS011;381;48.770;9.188;2023-03-14T11:16:33;1.43;;;1.33;;
795;SDS011;381;48.770;9.188;2023-03-14T11:21:43;1.10;;;1.10;;
795;SDS011;381;48.770;9.188;2023-03-14T11:26:55;1.80;;;1.70;;
795;SDS011;381;48.770;9.188;2023-03-14T11:32:12;1.90;;;1.80;;
795;SDS011;381;48.770;9.188;2023-03-14T11:37:17;1.90;;;1.80;;
795;SDS011;381;48.770;9.188;2023-03-14T11:42:27;1.77;;;1.67;;
795;SDS011;381;48.770;9.188;2023-03-14T11:47:33;1.60;;;1.60;;
795;SDS011;381;48.770;9.188;2023-03-14T11:52:40;1.40;;;1.40;;
795;SDS011;381;48.770;9.188;2023-03-14T11:57:47;1.70;;;1.70;;
795;SDS011;381;48.770;9.188;2023-03-14T12:02:53;4.37;;;1.83;;
795;SDS011;381;48.770;9.188;2023-03-14T12:08:19;1.80;;;1.70;;
795;SDS011;381;48.770;9.188;2023-03-14T12:13:40;1.30;;;1.30;;
795;SDS011;381;48.770;9.188;2023-03-14T12:18:47;1.80;;;1.70;;
795;SDS011;381;48.770;9.188;2023-03-14T12:23:50;1.53;;;1.43;;
795;SDS011;381;48.770;9.188;2023-03-14T12:29:11;1.30;;;1.30;;
795;SDS011;381;48.770;9.188;2023-03-14T12:34:27;2.77;;;2.67;;
795;SDS011;381;48.770;9.188;2023-03-14T12:39:32;1.50;;;1.50;;
795;SDS011;381;48.770;9.188;2023-03-14T12:44:44;1.77;;;1.30;;
795;SDS011;381;48.770;9.188;2023-03-14T12:49:48;1.30;;;1.30;;
795;SDS011;381;48.770;9.188;2023-03-14T12:54:53;1.77;;;1.67;;
795;SDS011;381;48.770;9.188;2023-03-14T13:00:02;1.97;;;1.73;;
795;SDS011;381;48.770;9.188;2023-03-14T13:05:18;1.70;;;1.60;;
795;SDS011;381;48.770;9.188;2023-03-14T13:10:22;1.53;;;1.40;;
795;SDS011;381;48.770;9.188;2023-03-14T13:15:27;3.43;;;2.20;;
795;SDS011;381;48.770;9.188;2023-03-14T13:20:32;1.87;;;1.67;;
795;SDS011;381;48.770;9.188;2023-03-14T13:25:37;1.90;;;1.80;;
795;SDS011;381;48.770;9.188;2023-03-14T13:30:41;1.70;;;1.60;;
795;SDS011;381;48.770;9.188;2023-03-14T13:35:46;1.90;;;1.80;;
795;SDS011;381;48.770;9.188;2023-03-14T13:40:51;2.20;;;1.70;;
795;SDS011;381;48.770;9.188;2023-03-14T13:46:04;1.90;;;1.80;;
795;SDS011;381;48.770;9.188;2023-03-14T13:51:09;1.97;;;1.77;;
795;SDS011;381;48.770;9.188;2023-03-14T13:56:14;2.20;;;2.10;;
795;SDS011;381;48.770;9.188;2023-03-14T14:01:18;1.70;;;1.60;;
795;SDS011;381;48.770;9.188;2023-03-14T14:06:28;2.07;;;1.80;;
795;SDS011;381;48.770;9.188;2023-03-14T14:11:40;2.13;;;1.80;;
795;SDS011;381;48.770;9.188;2023-03-14T14:16:45;1.77;;;1.50;;
795;SDS011;381;48.770;9.188;2023-03-14T14:21:49;2.80;;;1.93;;
795;SDS011;381;48.770;9.188;2023-03-14T14:26:52;3.13;;;1.70;;
795;SDS011;381;48.770;9.188;2023-03-14T14:32:00;1.43;;;1.30;;
795;SDS011;381;48.770;9.188;2023-03-14T14:37:04;2.00;;;1.80;;
795;SDS011;381;48.770;9.188;2023-03-14T14:42:12;2.13;;;1.60;;
795;SDS011;381;48.770;9.188;2023-03-14T14:47:17;1.87;;;1.77;;
795;SDS011;381;48.770;9.188;2023-03-14T14:52:22;1.50;;;1.40;;
795;SDS011;381;48.770;9.188;2023-03-14T14:57:32;3.87;;;1.80;;
795;SDS011;381;48.770;9.188;2023-03-14T15:02:44;2.93;;;1.63;;
795;SDS011;381;48.770;9.188;2023-03-14T15:07:51;3.80;;;1.90;;
795;SDS011;381;48.770;9.188;2023-03-14T15:12:53;4.17;;;1.83;;
795;SDS011;381;48.770;9.188;2023-03-14T15:17:56;2.87;;;1.50;;
795;SDS011;381;48.770;9.188;2023-03-14T15:22:59;2.83;;;2.20;;
795;SDS011;381;48.770;9.188;2023-03-14T15:28:01;2.73;;;2.10;;
795;SDS011;381;48.770;9.188;2023-03-14T15:33:05;3.03;;;1.90;;
795;SDS011;381;48.770;9.188;2023-03-14T15:38:09;2.20;;;1.93;;
795;SDS011;381;48.770;9.188;2023-03-14T15:43:13;3.73;;;1.60;;
795;SDS011;381;48.770;9.188;2023-03-14T15:48:17;3.37;;;2.37;;
795;SDS011;381;48.770;9.188;2023-03-14T15:53:20;2.43;;;1.80;;
795;SDS011;381;48.770;9.188;2023-03-14T15:58:22;3.37;;;2.20;;
795;SDS011;381;48.770;9.188;2023-03-14T16:03:25;4.87;;;2.40;;
795;SDS011;381;48.770;9.188;2023-03-14T16:08:28;2.50;;;1.80;;
795;SDS011;381;48.770;9.188;2023-03-14T16:13:30;5.07;;;2.23;;
795;SDS011;381;48.770;9.188;2023-03-14T16:18:35;1.87;;;1.77;;
795;SDS011;381;48.770;9.188;2023-03-14T16:23:38;4.10;;;1.80;;
795;SDS011;381;48.770;9.188;2023-03-14T16:28:40;2.70;;;2.10;;
795;SDS011;381;48.770;9.188;2023-03-14T16:33:44;4.20;;;2.10;;
795;SDS011;381;48.770;9.188;2023-03-14T16:38:46;2.33;;;2.13;;
795;SDS011;381;48.770;9.188;2023-03-14T16:43:48;3.33;;;1.90;;
795;SDS011;381;48.770;9.188;2023-03-14T16:48:53;6.00;;;1.83;;
795;SDS011;381;48.770;9.188;2023-03-14T16:53:56;2.10;;;1.90;;
795;SDS011;381;48.770;9.188;2023-03-14T16:58:58;2.10;;;1.90;;
795;SDS011;381;48.770;9.188;2023-03-14T17:04:01;3.20;;;2.20;;
795;SDS011;381;48.770;9.188;2023-03-14T17:09:04;2.60;;;2.07;;
795;SDS011;381;48.770;9.188;2023-03-14T17:14:06;2.27;;;2.07;;
795;SDS011;381;48.770;9.188;2023-03-14T17:19:09;3.13;;;1.90;;
795;SDS011;381;48.770;9.188;2023-03-14T17:24:11;3.17;;;1.83;;
795;SDS011;381;48.770;9.188;2023-03-14T17:29:13;1.50;;;1.40;;
795;SDS011;381;48.770;9.188;2023-03-14T17:34:17;2.33;;;2.07;;
795;SDS011;381;48.770;9.188;2023-03-14T17:39:19;3.27;;;2.33;;
795;SDS011;381;48.770;9.188;2023-03-14T17:44:21;3.00;;;2.30;;
795;SDS011;381;48.770;9.188;2023-03-14T17:49:25;4.27;;;2.50;;
795;SDS011;381;48.770;9.188;2023-03-14T17:54:27;5.83;;;3.10;;
795;SDS011;381;48.770;9.188;2023-03-14T17:59:29;5.07;;;3.07;;
795;SDS011;381;48.770;9.188;2023-03-14T18:04:33;2.73;;;2.53;;
795;SDS011;381;48.770;9.188;2023-03-14T18:09:35;3.83;;;3.40;;
795;SDS011;381;48.770;9.188;2023-03-14T18:14:37;3.73;;;3.00;;
795;SDS011;381;48.770;9.188;2023-03-14T18:19:44;3.57;;;2.80;;
795;SDS011;381;48.770;9.188;2023-03-14T18:24:47;3.57;;;2.50;;
795;SDS011;381;48.770;9.188;2023-03-14T18:29:49;4.53;;;2.10;;
795;SDS011;381;48.770;9.188;2023-03-14T18:34:52;2.30;;;2.10;;
795;SDS011;381;48.770;9.188;2023-03-14T18:39:57;2.30;;;2.10;;
795;SDS011;381;48.770;9.188;2023-03-14T18:50:44;3.50;;;2.47;;
795;SDS011;381;48.770;9.188;2023-03-14T18:56:45;1.93;;;1.50;;
795;SDS011;381;48.770;9.188;2023-03-14T19:01:47;3.53;;;2.17;;
795;SDS011;381;48.770;9.188;2023-03-14T19:06:52;2.27;;;1.90;;
795;SDS011;381;48.770;9.188;2023-03-14T19:11:56;2.50;;;2.07;;
795;SDS011;381;48.770;9.188;2023-03-14T19:16:58;1.90;;;1.80;;
795;SDS011;381;48.770;9.188;2023-03-14T19:22:02;2.83;;;1.87;;
795;SDS011;381;48.770;9.188;2023-03-14T19:27:04;3.17;;;2.00;;
795;SDS011;381;48.770;9.188;2023-03-14T19:32:06;2.20;;;2.00;;
795;SDS011;381;48.770;9.188;2023-03-14T19:37:09;2.20;;;2.07;;
795;SDS011;381;48.770;9.188;2023-03-14T19:42:11;3.67;;;2.30;;
795;SDS011;381;48.770;9.188;2023-03-14T19:47:14;4.40;;;2.37;;
795;SDS011;381;48.770;9.188;2023-03-14T19:52:17;3.43;;;2.13;;
795;SDS011;381;48.770;9.188;2023-03-14T19:57:19;3.87;;;2.60;;
795;SDS011;381;48.770;9.188;2023-03-14T20:02:21;4.83;;;3.70;;
795;SDS011;381;48.770;9.188;2023-03-14T20:07:25;4.57;;;3.43;;
795;SDS011;381;48.770;9.188;2023-03-14T20:12:28;5.47;;;2.83;;
795;SDS011;381;48.770;9.188;2023-03-14T20:17:31;2.70;;;2.30;;
795;SDS011;381;48.770;9.188;2023-03-14T20:22:39;12.47;;;5.97;;
795;SDS011;381;48.770;9.188;2023-03-14T20:27:41;8.70;;;5.70;;
795;SDS011;381;48.770;9.188;2023-03-14T20:32:47;3.97;;;2.83;;
795;SDS011;381;48.770;9.188;2023-03-14T20:37:52;3.10;;;2.40;;
795;SDS011;381;48.770;9.188;2023-03-14T20:42:55;5.90;;;3.00;;
795;SDS011;381;48.770;9.188;2023-03-14T20:47:57;4.53;;;2.50;;
795;SDS011;381;48.770;9.188;2023-03-14T20:53:01;3.87;;;2.60;;
795;SDS011;381;48.770;9.188;2023-03-14T20:58:03;3.17;;;2.53;;
795;SDS011;381;48.770;9.188;2023-03-14T21:03:05;2.90;;;2.40;;
795;SDS011;381;48.770;9.188;2023-03-14T21:08:11;3.37;;;2.80;;
795;SDS011;381;48.770;9.188;2023-03-14T21:13:13;5.70;;;2.70;;
795;SDS011;381;48.770;9.188;2023-03-14T21:18:15;2.90;;;2.70;;
795;SDS011;381;48.770;9.188;2023-03-14T21:23:19;4.57;;;2.93;;
795;SDS011;381;48.770;9.188;2023-03-14T21:28:21;3.10;;;2.37;;
795;SDS011;381;48.770;9.188;2023-03-14T21:33:24;3.93;;;3.37;;
795;SDS011;381;48.770;9.188;2023-03-14T21:38:27;3.27;;;2.53;;
795;SDS011;381;48.770;9.188;2023-03-14T21:43:29;2.50;;;2.30;;
795;SDS011;381;48.770;9.188;2023-03-14T21:48:31;2.83;;;2.50;;
795;SDS011;381;48.770;9.188;2023-03-14T21:53:35;2.87;;;2.57;;
795;SDS011;381;48.770;9.188;2023-03-14T21:58:38;2.70;;;2.50;;
795;SDS011;381;48.770;9.188;2023-03-14T22:03:40;4.13;;;2.00;;
795;SDS011;381;48.770;9.188;2023-03-14T22:08:46;2.70;;;2.33;;
795;SDS011;381;48.770;9.188;2023-03-14T22:13:48;2.50;;;2.30;;
795;SDS011;381;48.770;9.188;2023-03-14T22:18:50;4.03;;;3.73;;
795;SDS011;381;48.770;9.188;2023-03-14T22:23:54;3.67;;;3.27;;
795;SDS011;381;48.770;9.188;2023-03-14T22:28:56;2.93;;;2.73;;
795;SDS011;381;48.770;9.188;2023-03-14T22:33:58;2.00;;;1.90;;
795;SDS011;381;48.770;9.188;2023-03-14T22:39:01;2.03;;;1.93;;
795;SDS011;381;48.770;9.188;2023-03-14T22:44:05;2.20;;;2.10;;
795;SDS011;381;48.770;9.188;2023-03-14T22:49:07;2.00;;;1.90;;
795;SDS011;381;48.770;9.188;2023-03-14T22:54:11;2.30;;;2.20;;
795;SDS011;381;48.770;9.188;2023-03-14T22:59:13;2.13;;;2.03;;
795;SDS011;381;48.770;9.188;2023-03-14T23:04:15;2.40;;;2.30;;
795;SDS011;381;48.770;9.188;2023-03-14T23:09:19;2.57;;;2.47;;
795;SDS011;381;48.770;9.188;2023-03-14T23:14:21;2.43;;;2.33;;
795;SDS011;381;48.770;9.188;2023-03-14T23:19:23;2.60;;;2.50;;
795;SDS011;381;48.770;9.188;2023-03-14T23:24:27;2.93;;;2.73;;
795;SDS011;381;48.770;9.188;2023-03-14T23:29:29;3.60;;;3.30;;
795;SDS011;381;48.770;9.188;2023-03-14T23:34:31;3.10;;;2.90;;
795;SDS011;381;48.770;9.188;2023-03-14T23:39:34;4.63;;;3.83;;
795;SDS011;381;48.770;9.188;2023-03-14T23:44:36;3.73;;;3.43;;
795;SDS011;381;48.770;9.188;2023-03-14T23:49:39;4.10;;;3.80;;
795;SDS011;381;48.770;9.188;2023-03-14T23:54:42;4.43;;;4.13;;
795;SDS011;381;48.770;9.188;2023-03-14T23:59:45;4.50;;;4.20;;
